sensor_id;sensor_type;location;lat;lon;timestamp;pressure;altitude;pressure_sealevel;temperature;humidity
24962;BME280;12992;50.884;13.668;2023-03-16T00:00:49;97620.25;;;-1.39;100.00
24962;BME280;12992;50.884;13.668;2023-03-16T00:03:15;97649.72;;;-1.25;100.00
24962;BME280;12992;50.884;13.668;2023-03-16T00:05:51;97640.72;;;-1.24;100.00
24962;BME280;12992;50.884;13.668;2023-03-16T00:08:17;97631.56;;;-1.29;100.00
24962;BME280;12992;50.884;13.668;2023-03-16T00:10:43;97631.94;;;-1.32;100.00
24962;BME280;12992;50.884;13.668;2023-03-16T00:13:13;97638.22;;;-1.25;100.00
24962;BME280;12992;50.884;13.668;2023-03-16T00:15:38;97642.22;;;-1.21;100.00
24962;BME280;12992;50.884;13.668;2023-03-16T00:18:04;97632.88;;;-1.25;100.00
24962;BME280;12992;50.884;13.668;2023-03-16T00:20:29;97646.56;;;-1.20;100.00
24962;BME280;12992;50.884;13.668;2023-03-16T00:22:54;97635.25;;;-1.30;100.00
24962;BME280;12992;50.884;13.668;2023-03-16T00:25:20;97611.22;;;-1.38;100.00
24962;BME280;12992;50.884;13.668;2023-03-16T00:27:45;97583.78;;;-1.63;100.00
24962;BME280;12992;50.884;13.668;2023-03-16T00:30:11;97604.47;;;-1.57;100.00
24962;BME280;12992;50.884;13.668;2023-03-16T00:32:37;97601.66;;;-1.64;100.00
24962;BME280;12992;50.884;13.668;2023-03-16T00:35:03;97610.31;;;-1.62;100.00
24962;BME280;12992;50.884;13.668;2023-03-16T00:37:30;97603.84;;;-1.67;100.00
24962;BME280;12992;50.884;13.668;2023-03-16T00:39:58;97593.84;;;-1.82;100.00
24962;BME280;12992;50.884;13.668;2023-03-16T00:42:26;97601.50;;;-1.79;100.00
24962;BME280;12992;50.884;13.668;2023-03-16T00:44:59;97618.69;;;-1.73;100.00
24962;BME280;12992;50.884;13.668;2023-03-16T00:47:28;97630.38;;;-1.66;100.00
24962;BME280;12992;50.884;13.668;2023-03-16T00:49:54;97625.84;;;-1.65;100.00
24962;BME280;12992;50.884;13.668;2023-03-16T00:52:20;97615.00;;;-1.72;100.00
24962;BME280;12992;50.884;13.668;2023-03-16T00:54:47;97634.53;;;-1.63;100.00
24962;BME280;12992;50.884;13.668;2023-03-16T00:57:15;97644.38;;;-1.64;100.00
24962;BME280;12992;50.884;13.668;2023-03-16T00:59:43;97635.19;;;-1.69;100.00
24962;BME280;12992;50.884;13.668;2023-03-16T01:02:10;97624.22;;;-1.75;100.00
24962;BME280;12992;50.884;13.668;2023-03-16T01:04:37;97636.22;;;-1.79;100.00
24962;BME280;12992;50.884;13.668;2023-03-16T01:07:08;97626.38;;;-1.78;100.00
24962;BME280;12992;50.884;13.668;2023-03-16T01:09:35;97632.06;;;-1.81;100.00
24962;BME280;12992;50.884;13.668;2023-03-16T01:12:06;97632.72;;;-1.87;100.00
24962;BME280;12992;50.884;13.668;2023-03-16T01:14:33;97669.91;;;-1.69;100.00
24962;BME280;12992;50.884;13.668;2023-03-16T01:16:59;97681.09;;;-1.58;100.00
24962;BME280;12992;50.884;13.668;2023-03-16T01:19:25;97706.75;;;-1.40;100.00
24962;BME280;12992;50.884;13.668;2023-03-16T01:21:50;97719.72;;;-1.29;100.00
24962;BME280;12992;50.884;13.668;2023-03-16T01:24:16;97716.72;;;-1.26;100.00
24962;BME280;12992;50.884;13.668;2023-03-16T01:26:41;97713.03;;;-1.25;100.00
24962;BME280;12992;50.884;13.668;2023-03-16T01:29:07;97712.34;;;-1.19;100.00
24962;BME280;12992;50.884;13.668;2023-03-16T01:31:32;97702.16;;;-1.24;100.00
24962;BME280;12992;50.884;13.668;2023-03-16T01:33:58;97705.53;;;-1.22;100.00
24962;BME280;12992;50.884;13.668;2023-03-16T01:36:27;97697.81;;;-1.25;100.00
24962;BME280;12992;50.884;13.668;2023-03-16T01:39:04;97717.19;;;-1.15;100.00
24962;BME280;12992;50.884;13.668;2023-03-16T01:41:35;97726.16;;;-1.07;100.00
24962;BME280;12992;50.884;13.668;2023-03-16T01:44:00;97738.00;;;-0.94;100.00
24962;BME280;12992;50.884;13.668;2023-03-16T01:46:28;97746.81;;;-0.85;100.00
24962;BME280;12992;50.884;13.668;2023-03-16T01:49:13;97734.09;;;-0.83;100.00
24962;BME280;12992;50.884;13.668;2023-03-16T01:51:48;97720.91;;;-0.84;100.00
24962;BME280;12992;50.884;13.668;2023-03-16T01:54:25;97715.25;;;-0.90;100.00
24962;BME280;12992;50.884;13.668;2023-03-16T01:57:14;97718.56;;;-0.79;100.00
24962;BME280;12992;50.884;13.668;2023-03-16T01:59:52;97700.03;;;-0.89;100.00
24962;BME280;12992;50.884;13.668;2023-03-16T02:02:22;97702.00;;;-0.83;100.00
24962;BME280;12992;50.884;13.668;2023-03-16T02:07:21;97703.00;;;-0.76;100.00
24962;BME280;12992;50.884;13.668;2023-03-16T02:09:49;97700.81;;;-0.80;100.00
24962;BME280;12992;50.884;13.668;2023-03-16T02:12:16;97689.28;;;-0.81;100.00
24962;BME280;12992;50.884;13.668;2023-03-16T02:14:46;97696.47;;;-0.81;100.00
24962;BME280;12992;50.884;13.668;2023-03-16T02:17:13;97690.13;;;-0.80;100.00
24962;BME280;12992;50.884;13.668;2023-03-16T02:20:00;97692.47;;;-0.77;100.00
24962;BME280;12992;50.884;13.668;2023-03-16T02:22:38;97675.97;;;-0.89;100.00
24962;BME280;12992;50.884;13.668;2023-03-16T02:25:06;97688.81;;;-0.84;100.00
24962;BME280;12992;50.884;13.668;2023-03-16T02:27:40;97697.00;;;-0.78;100.00
24962;BME280;12992;50.884;13.668;2023-03-16T02:30:15;97710.13;;;-0.68;100.00
24962;BME280;12992;50.884;13.668;2023-03-16T02:32:55;97708.94;;;-0.66;100.00
24962;BME280;12992;50.884;13.668;2023-03-16T02:35:21;97707.94;;;-0.65;100.00
24962;BME280;12992;50.884;13.668;2023-03-16T02:37:47;97697.41;;;-0.66;100.00
24962;BME280;12992;50.884;13.668;2023-03-16T02:40:20;97697.41;;;-0.66;100.00
24962;BME280;12992;50.884;13.668;2023-03-16T02:42:53;97699.06;;;-0.65;100.00
24962;BME280;12992;50.884;13.668;2023-03-16T02:45:20;97683.41;;;-0.68;100.00
24962;BME280;12992;50.884;13.668;2023-03-16T02:47:46;97675.22;;;-0.75;100.00
24962;BME280;12992;50.884;13.668;2023-03-16T02:50:15;97703.41;;;-0.64;100.00
24962;BME280;12992;50.884;13.668;2023-03-16T02:52:40;97700.22;;;-0.60;100.00
24962;BME280;12992;50.884;13.668;2023-03-16T02:55:07;97706.41;;;-0.59;100.00
24962;BME280;12992;50.884;13.668;2023-03-16T02:57:32;97678.38;;;-0.71;100.00
24962;BME280;12992;50.884;13.668;2023-03-16T03:00:05;97672.09;;;-0.78;100.00
24962;BME280;12992;50.884;13.668;2023-03-16T03:02:46;97680.41;;;-0.73;100.00
24962;BME280;12992;50.884;13.668;2023-03-16T03:05:12;97710.75;;;-0.58;100.00
24962;BME280;12992;50.884;13.668;2023-03-16T03:07:37;97710.38;;;-0.55;100.00
24962;BME280;12992;50.884;13.668;2023-03-16T03:10:05;97701.53;;;-0.55;100.00
24962;BME280;12992;50.884;13.668;2023-03-16T03:12:32;97679.72;;;-0.67;100.00
24962;BME280;12992;50.884;13.668;2023-03-16T03:14:58;97668.41;;;-0.77;100.00
24962;BME280;12992;50.884;13.668;2023-03-16T03:17:24;97672.09;;;-0.78;100.00
24962;BME280;12992;50.884;13.668;2023-03-16T03:19:58;97656.13;;;-0.95;100.00
24962;BME280;12992;50.884;13.668;2023-03-16T03:22:25;97649.16;;;-1.04;100.00
24962;BME280;12992;50.884;13.668;2023-03-16T03:24:52;97652.84;;;-1.05;100.00
24962;BME280;12992;50.884;13.668;2023-03-16T03:27:18;97658.50;;;-1.08;100.00
24962;BME280;12992;50.884;13.668;2023-03-16T03:29:44;97658.22;;;-1.13;100.00
24962;BME280;12992;50.884;13.668;2023-03-16T03:32:09;97651.72;;;-1.19;100.00
24962;BME280;12992;50.884;13.668;2023-03-16T03:34:36;97663.25;;;-1.18;100.00
24962;BME280;12992;50.884;13.668;2023-03-16T03:37:03;97675.09;;;-1.12;100.00
24962;BME280;12992;50.884;13.668;2023-03-16T03:39:28;97670.75;;;-1.13;100.00
24962;BME280;12992;50.884;13.668;2023-03-16T03:41:54;97665.91;;;-1.18;100.00
24962;BME280;12992;50.884;13.668;2023-03-16T03:44:21;97672.91;;;-1.17;100.00
24962;BME280;12992;50.884;13.668;2023-03-16T03:46:47;97685.28;;;-1.16;100.00
24962;BME280;12992;50.884;13.668;2023-03-16T03:49:13;97668.63;;;-1.26;100.00
24962;BME280;12992;50.884;13.668;2023-03-16T03:51:39;97667.97;;;-1.28;100.00
24962;BME280;12992;50.884;13.668;2023-03-16T03:54:09;97672.00;;;-1.32;100.00
24962;BME280;12992;50.884;13.668;2023-03-16T03:56:52;97646.00;;;-1.47;100.00
24962;BME280;12992;50.884;13.668;2023-03-16T03:59:18;97651.00;;;-1.52;100.00
24962;BME280;12992;50.884;13.668;2023-03-16T04:02:12;97663.03;;;-1.48;100.00
24962;BME280;12992;50.884;13.668;2023-03-16T04:04:43;97667.53;;;-1.48;100.00
24962;BME280;12992;50.884;13.668;2023-03-16T04:07:10;97671.72;;;-1.54;100.00
24962;BME280;12992;50.884;13.668;2023-03-16T04:09:36;97667.56;;;-1.56;100.00
24962;BME280;12992;50.884;13.668;2023-03-16T04:12:04;97676.88;;;-1.52;100.00
24962;BME280;12992;50.884;13.668;2023-03-16T04:14:30;97675.56;;;-1.56;100.00
24962;BME280;12992;50.884;13.668;2023-03-16T04:16:56;97661.91;;;-1.69;100.00
24962;BME280;12992;50.884;13.668;2023-03-16T04:19:22;97665.25;;;-1.67;100.00
24962;BME280;12992;50.884;13.668;2023-03-16T04:21:50;97674.75;;;-1.65;100.00
24962;BME280;12992;50.884;13.668;2023-03-16T04:24:17;97690.41;;;-1.54;100.00
24962;BME280;12992;50.884;13.668;2023-03-16T04:26:43;97694.75;;;-1.53;100.00
24962;BME280;12992;50.884;13.668;2023-03-16T04:29:10;97695.75;;;-1.54;100.00
24962;BME280;12992;50.884;13.668;2023-03-16T04:31:36;97702.75;;;-1.53;100.00
24962;BME280;12992;50.884;13.668;2023-03-16T04:34:02;97700.75;;;-1.51;100.00
24962;BME280;12992;50.884;13.668;2023-03-16T04:36:28;97705.59;;;-1.46;100.00
24962;BME280;12992;50.884;13.668;2023-03-16T04:38:54;97725.72;;;-1.27;100.00
24962;BME280;12992;50.884;13.668;2023-03-16T04:41:20;97729.41;;;-1.20;100.00
24962;BME280;12992;50.884;13.668;2023-03-16T04:44:08;97723.38;;;-1.14;100.00
24962;BME280;12992;50.884;13.668;2023-03-16T04:46:33;97721.53;;;-1.13;100.00
24962;BME280;12992;50.884;13.668;2023-03-16T04:49:03;97719.00;;;-1.15;100.00
24962;BME280;12992;50.884;13.668;2023-03-16T04:51:29;97717.66;;;-1.11;100.00
24962;BME280;12992;50.884;13.668;2023-03-16T04:54:03;97711.50;;;-1.11;100.00
24962;BME280;12992;50.884;13.668;2023-03-16T04:56:33;97704.50;;;-1.12;100.00
24962;BME280;12992;50.884;13.668;2023-03-16T04:59:03;97678.00;;;-1.30;100.00
24962;BME280;12992;50.884;13.668;2023-03-16T05:01:37;97688.97;;;-1.25;100.00
24962;BME280;12992;50.884;13.668;2023-03-16T05:04:04;97699.16;;;-1.21;100.00
24962;BME280;12992;50.884;13.668;2023-03-16T05:06:32;97704.50;;;-1.21;100.00
24962;BME280;12992;50.884;13.668;2023-03-16T05:08:59;97683.34;;;-1.30;100.00
24962;BME280;12992;50.884;13.668;2023-03-16T05:11:26;97695.16;;;-1.25;100.00
24962;BME280;12992;50.884;13.668;2023-03-16T05:13:56;97693.16;;;-1.23;100.00
24962;BME280;12992;50.884;13.668;2023-03-16T05:16:22;97687.50;;;-1.28;100.00
24962;BME280;12992;50.884;13.668;2023-03-16T05:18:48;97685.34;;;-1.32;100.00
24962;BME280;12992;50.884;13.668;2023-03-16T05:21:13;97690.53;;;-1.31;100.00
24962;BME280;12992;50.884;13.668;2023-03-16T05:23:50;97690.34;;;-1.29;100.00
24962;BME280;12992;50.884;13.668;2023-03-16T05:26:17;97705.00;;;-1.17;100.00
24962;BME280;12992;50.884;13.668;2023-03-16T05:28:44;97706.50;;;-1.15;100.00
24962;BME280;12992;50.884;13.668;2023-03-16T05:31:12;97710.00;;;-1.14;100.00
24962;BME280;12992;50.884;13.668;2023-03-16T05:33:42;97712.31;;;-1.11;100.00
24962;BME280;12992;50.884;13.668;2023-03-16T05:36:15;97700.31;;;-1.15;100.00
24962;BME280;12992;50.884;13.668;2023-03-16T05:38:43;97716.66;;;-1.10;100.00
24962;BME280;12992;50.884;13.668;2023-03-16T05:41:14;97709.19;;;-1.15;100.00
24962;BME280;12992;50.884;13.668;2023-03-16T05:43:51;97713.34;;;-1.12;100.00
24962;BME280;12992;50.884;13.668;2023-03-16T05:46:18;97709.00;;;-1.13;100.00
24962;BME280;12992;50.884;13.668;2023-03-16T05:48:44;97732.03;;;-1.04;100.00
24962;BME280;12992;50.884;13.668;2023-03-16T05:51:12;97732.50;;;-1.00;100.00
24962;BME280;12992;50.884;13.668;2023-03-16T05:53:38;97721.66;;;-1.07;100.00
24962;BME280;12992;50.884;13.668;2023-03-16T05:56:11;97714.66;;;-1.08;100.00
24962;BME280;12992;50.884;13.668;2023-03-16T05:58:40;97730.47;;;-0.98;100.00
24962;BME280;12992;50.884;13.668;2023-03-16T06:01:07;97748.84;;;-0.87;100.00
24962;BME280;12992;50.884;13.668;2023-03-16T06:03:37;97743.97;;;-0.83;100.00
24962;BME280;12992;50.884;13.668;2023-03-16T06:06:04;97738.97;;;-0.87;100.00
24962;BME280;12992;50.884;13.668;2023-03-16T06:08:34;97731.63;;;-0.93;100.00
24962;BME280;12992;50.884;13.668;2023-03-16T06:11:06;97749.78;;;-0.80;100.00
24962;BME280;12992;50.884;13.668;2023-03-16T06:13:32;97746.13;;;-0.79;100.00
24962;BME280;12992;50.884;13.668;2023-03-16T06:15:57;97763.81;;;-0.70;100.00
24962;BME280;12992;50.884;13.668;2023-03-16T06:18:23;97763.91;;;-0.63;100.00
24962;BME280;12992;50.884;13.668;2023-03-16T06:20:49;97829.63;;;-0.21;100.00
24962;BME280;12992;50.884;13.668;2023-03-16T06:23:16;97879.81;;;0.39;100.00
24962;BME280;12992;50.884;13.668;2023-03-16T06:25:45;97905.28;;;1.03;100.00
24962;BME280;12992;50.884;13.668;2023-03-16T06:28:11;97914.34;;;1.55;97.56
24962;BME280;12992;50.884;13.668;2023-03-16T06:30:38;97921.72;;;2.12;92.55
24962;BME280;12992;50.884;13.668;2023-03-16T06:33:04;97896.97;;;2.31;89.23
24962;BME280;12992;50.884;13.668;2023-03-16T06:35:29;97865.53;;;2.32;86.92
24962;BME280;12992;50.884;13.668;2023-03-16T06:38:09;97798.28;;;2.04;85.95
24962;BME280;12992;50.884;13.668;2023-03-16T06:40:52;97792.47;;;1.85;88.26
24962;BME280;12992;50.884;13.668;2023-03-16T06:43:19;97780.38;;;1.75;89.07
24962;BME280;12992;50.884;13.668;2023-03-16T06:45:45;97769.66;;;1.60;90.11
24962;BME280;12992;50.884;13.668;2023-03-16T06:48:10;97773.09;;;1.54;90.45
24962;BME280;12992;50.884;13.668;2023-03-16T06:50:37;97753.50;;;1.38;92.11
24962;BME280;12992;50.884;13.668;2023-03-16T06:53:03;97747.19;;;1.31;92.83
24962;BME280;12992;50.884;13.668;2023-03-16T06:55:30;97763.78;;;1.35;94.70
24962;BME280;12992;50.884;13.668;2023-03-16T06:57:55;97787.34;;;1.39;97.90
24962;BME280;12992;50.884;13.668;2023-03-16T07:00:22;97811.06;;;1.51;99.41
24962;BME280;12992;50.884;13.668;2023-03-16T07:02:49;97817.72;;;1.55;98.44
24962;BME280;12992;50.884;13.668;2023-03-16T07:05:14;97832.31;;;1.67;99.39
24962;BME280;12992;50.884;13.668;2023-03-16T07:07:41;97864.88;;;1.93;100.00
24962;BME280;12992;50.884;13.668;2023-03-16T07:10:13;97856.56;;;1.88;99.07
24962;BME280;12992;50.884;13.668;2023-03-16T07:12:39;97869.13;;;2.03;94.93
24962;BME280;12992;50.884;13.668;2023-03-16T07:15:05;97855.41;;;2.12;91.78
24962;BME280;12992;50.884;13.668;2023-03-16T07:17:30;97829.28;;;2.06;92.68
24962;BME280;12992;50.884;13.668;2023-03-16T07:19:57;97856.38;;;2.26;91.90
24962;BME280;12992;50.884;13.668;2023-03-16T07:22:22;97862.03;;;2.31;91.53
24962;BME280;12992;50.884;13.668;2023-03-16T07:24:48;97874.56;;;2.45;91.53
24962;BME280;12992;50.884;13.668;2023-03-16T07:27:20;97881.47;;;2.54;91.48
24962;BME280;12992;50.884;13.668;2023-03-16T07:29:49;97882.38;;;2.62;90.57
24962;BME280;12992;50.884;13.668;2023-03-16T07:32:14;97886.06;;;2.75;90.76
24962;BME280;12992;50.884;13.668;2023-03-16T07:34:40;97918.38;;;3.03;91.20
24962;BME280;12992;50.884;13.668;2023-03-16T07:37:06;97917.44;;;3.18;92.12
24962;BME280;12992;50.884;13.668;2023-03-16T07:39:33;97926.91;;;3.35;91.13
24962;BME280;12992;50.884;13.668;2023-03-16T07:42:07;97933.69;;;3.52;91.45
24962;BME280;12992;50.884;13.668;2023-03-16T07:44:44;97931.09;;;3.65;90.01
24962;BME280;12992;50.884;13.668;2023-03-16T07:47:11;97923.91;;;3.79;88.66
24962;BME280;12992;50.884;13.668;2023-03-16T07:49:37;97909.91;;;3.97;85.06
24962;BME280;12992;50.884;13.668;2023-03-16T07:52:02;97919.50;;;4.06;88.16
24962;BME280;12992;50.884;13.668;2023-03-16T07:54:35;97904.84;;;4.15;86.91
24962;BME280;12992;50.884;13.668;2023-03-16T07:57:03;97918.16;;;4.30;87.70
24962;BME280;12992;50.884;13.668;2023-03-16T07:59:34;97937.53;;;4.47;89.34
24962;BME280;12992;50.884;13.668;2023-03-16T08:02:00;97891.16;;;4.23;85.71
24962;BME280;12992;50.884;13.668;2023-03-16T08:04:25;97908.06;;;4.45;85.03
24962;BME280;12992;50.884;13.668;2023-03-16T08:06:51;97897.97;;;4.74;76.20
24962;BME280;12992;50.884;13.668;2023-03-16T08:09:20;97913.59;;;4.98;76.41
24962;BME280;12992;50.884;13.668;2023-03-16T08:11:45;97914.66;;;5.17;74.11
24962;BME280;12992;50.884;13.668;2023-03-16T08:14:11;97906.75;;;5.35;72.12
24962;BME280;12992;50.884;13.668;2023-03-16T08:16:54;97918.38;;;5.56;72.92
24962;BME280;12992;50.884;13.668;2023-03-16T08:19:20;97881.41;;;5.50;70.57
24962;BME280;12992;50.884;13.668;2023-03-16T08:21:47;97866.84;;;5.57;68.49
24962;BME280;12992;50.884;13.668;2023-03-16T08:24:13;97847.50;;;5.47;68.80
24962;BME280;12992;50.884;13.668;2023-03-16T08:26:38;97850.00;;;5.55;67.33
24962;BME280;12992;50.884;13.668;2023-03-16T08:29:04;97855.59;;;5.67;66.90
24962;BME280;12992;50.884;13.668;2023-03-16T08:31:33;97889.66;;;5.81;71.06
24962;BME280;12992;50.884;13.668;2023-03-16T08:34:18;97889.06;;;5.92;67.90
24962;BME280;12992;50.884;13.668;2023-03-16T08:36:43;97875.72;;;5.97;66.45
24962;BME280;12992;50.884;13.668;2023-03-16T08:39:11;97853.84;;;5.99;65.05
24962;BME280;12992;50.884;13.668;2023-03-16T08:41:43;97859.69;;;6.03;65.97
24962;BME280;12992;50.884;13.668;2023-03-16T08:44:19;97886.25;;;6.19;66.40
24962;BME280;12992;50.884;13.668;2023-03-16T08:46:45;97899.09;;;6.37;66.11
24962;BME280;12992;50.884;13.668;2023-03-16T08:49:11;97910.22;;;6.53;65.51
24962;BME280;12992;50.884;13.668;2023-03-16T08:51:38;97923.03;;;6.71;65.67
24962;BME280;12992;50.884;13.668;2023-03-16T08:54:03;97927.53;;;6.91;65.82
24962;BME280;12992;50.884;13.668;2023-03-16T08:56:28;97936.06;;;7.26;64.83
24962;BME280;12992;50.884;13.668;2023-03-16T08:58:55;97961.41;;;7.63;64.06
24962;BME280;12992;50.884;13.668;2023-03-16T09:01:21;97996.94;;;8.66;61.33
24962;BME280;12992;50.884;13.668;2023-03-16T09:03:47;98033.25;;;9.62;60.02
24962;BME280;12992;50.884;13.668;2023-03-16T09:06:15;98032.09;;;10.70;55.72
24962;BME280;12992;50.884;13.668;2023-03-16T09:08:41;98044.78;;;11.45;54.73
24962;BME280;12992;50.884;13.668;2023-03-16T09:11:10;98047.56;;;12.24;53.99
24962;BME280;12992;50.884;13.668;2023-03-16T09:13:37;98004.28;;;12.32;54.88
24962;BME280;12992;50.884;13.668;2023-03-16T09:16:04;98004.88;;;12.73;51.85
24962;BME280;12992;50.884;13.668;2023-03-16T09:18:29;98013.53;;;13.09;52.97
24962;BME280;12992;50.884;13.668;2023-03-16T09:20:59;98016.59;;;13.88;51.88
24962;BME280;12992;50.884;13.668;2023-03-16T09:23:25;97993.34;;;14.28;47.05
24962;BME280;12992;50.884;13.668;2023-03-16T09:25:52;97977.81;;;14.81;48.20
24962;BME280;12992;50.884;13.668;2023-03-16T09:28:17;98002.19;;;15.45;46.79
24962;BME280;12992;50.884;13.668;2023-03-16T09:30:43;98034.75;;;16.09;46.61
24962;BME280;12992;50.884;13.668;2023-03-16T09:33:08;97971.50;;;16.39;43.24
24962;BME280;12992;50.884;13.668;2023-03-16T09:35:33;97997.59;;;16.47;45.41
24962;BME280;12992;50.884;13.668;2023-03-16T09:37:59;97924.50;;;16.36;44.13
24962;BME280;12992;50.884;13.668;2023-03-16T09:40:28;98025.97;;;17.43;44.15
24962;BME280;12992;50.884;13.668;2023-03-16T09:43:17;97942.31;;;17.34;42.53
24962;BME280;12992;50.884;13.668;2023-03-16T09:46:02;97972.94;;;17.71;43.09
24962;BME280;12992;50.884;13.668;2023-03-16T09:48:33;97928.91;;;17.61;43.12
24962;BME280;12992;50.884;13.668;2023-03-16T09:51:01;97962.56;;;18.26;43.02
24962;BME280;12992;50.884;13.668;2023-03-16T09:53:30;98074.81;;;20.41;41.83
24962;BME280;12992;50.884;13.668;2023-03-16T09:56:07;98012.13;;;20.83;40.89
24962;BME280;12992;50.884;13.668;2023-03-16T09:58:34;97931.78;;;20.09;40.35
24962;BME280;12992;50.884;13.668;2023-03-16T10:02:13;97930.53;;;20.01;40.50
24962;BME280;12992;50.884;13.668;2023-03-16T10:04:22;97989.97;;;21.10;40.17
24962;BME280;12992;50.884;13.668;2023-03-16T10:09:53;97894.53;;;20.20;39.06
24962;BME280;12992;50.884;13.668;2023-03-16T10:12:21;97816.94;;;18.76;39.29
24962;BME280;12992;50.884;13.668;2023-03-16T10:15:09;97928.06;;;20.32;39.48
24962;BME280;12992;50.884;13.668;2023-03-16T10:17:51;97936.03;;;21.08;38.38
24962;BME280;12992;50.884;13.668;2023-03-16T10:20:22;97848.69;;;20.47;37.71
24962;BME280;12992;50.884;13.668;2023-03-16T10:22:50;97881.25;;;20.36;40.94
24962;BME280;12992;50.884;13.668;2023-03-16T10:28:12;97835.63;;;20.06;41.53
24962;BME280;12992;50.884;13.668;2023-03-16T10:30:39;97839.59;;;20.14;40.93
24962;BME280;12992;50.884;13.668;2023-03-16T10:33:26;97851.81;;;20.13;41.50
24962;BME280;12992;50.884;13.668;2023-03-16T10:36:00;97898.31;;;20.71;40.51
24962;BME280;12992;50.884;13.668;2023-03-16T10:38:40;97803.78;;;20.08;39.43
24962;BME280;12992;50.884;13.668;2023-03-16T10:43:58;97823.63;;;20.11;38.62
24962;BME280;12992;50.884;13.668;2023-03-16T10:46:41;97819.03;;;20.06;39.57
24962;BME280;12992;50.884;13.668;2023-03-16T10:49:21;97799.84;;;19.82;41.24
24962;BME280;12992;50.884;13.668;2023-03-16T10:51:47;97764.56;;;19.28;41.72
24962;BME280;12992;50.884;13.668;2023-03-16T10:54:25;97809.56;;;19.28;43.30
24962;BME280;12992;50.884;13.668;2023-03-16T10:56:52;97836.13;;;20.22;42.00
24962;BME280;12992;50.884;13.668;2023-03-16T10:59:32;97757.25;;;19.83;39.48
24962;BME280;12992;50.884;13.668;2023-03-16T11:02:01;97764.13;;;19.53;40.89
24962;BME280;12992;50.884;13.668;2023-03-16T11:04:31;97695.59;;;19.22;37.82
24962;BME280;12992;50.884;13.668;2023-03-16T11:06:57;97730.19;;;19.34;38.86
24962;BME280;12992;50.884;13.668;2023-03-16T11:09:25;97758.16;;;19.65;39.54
24962;BME280;12992;50.884;13.668;2023-03-16T11:11:56;97729.66;;;18.99;40.82
24962;BME280;12992;50.884;13.668;2023-03-16T11:14:25;97719.31;;;18.72;42.44
24962;BME280;12992;50.884;13.668;2023-03-16T11:17:02;97739.09;;;18.79;43.62
24962;BME280;12992;50.884;13.668;2023-03-16T11:19:32;97570.03;;;16.89;42.12
24962;BME280;12992;50.884;13.668;2023-03-16T11:22:07;97623.88;;;16.95;41.99
24962;BME280;12992;50.884;13.668;2023-03-16T11:24:51;97689.66;;;17.25;42.74
24962;BME280;12992;50.884;13.668;2023-03-16T11:27:29;97698.28;;;17.67;42.36
24962;BME280;12992;50.884;13.668;2023-03-16T11:30:07;97623.94;;;17.43;40.75
24962;BME280;12992;50.884;13.668;2023-03-16T11:32:37;97615.00;;;17.03;41.50
24962;BME280;12992;50.884;13.668;2023-03-16T11:35:17;97700.50;;;17.70;42.83
24962;BME280;12992;50.884;13.668;2023-03-16T11:38:12;97667.28;;;17.56;43.35
24962;BME280;12992;50.884;13.668;2023-03-16T11:41:00;97684.41;;;18.01;41.68
24962;BME280;12992;50.884;13.668;2023-03-16T11:43:55;97617.91;;;17.41;40.21
24962;BME280;12992;50.884;13.668;2023-03-16T11:57:27;97557.78;;;16.03;45.62
24962;BME280;12992;50.884;13.668;2023-03-16T12:00:07;97561.50;;;16.22;43.13
24962;BME280;12992;50.884;13.668;2023-03-16T12:02:48;97574.44;;;16.17;44.42
24962;BME280;12992;50.884;13.668;2023-03-16T12:11:06;97453.13;;;13.85;47.36
24962;BME280;12992;50.884;13.668;2023-03-16T12:13:55;97435.19;;;13.11;47.68
24962;BME280;12992;50.884;13.668;2023-03-16T12:16:47;97488.00;;;13.17;51.05
24962;BME280;12992;50.884;13.668;2023-03-16T12:19:42;97493.03;;;13.45;49.33
24962;BME280;12992;50.884;13.668;2023-03-16T12:22:19;97473.47;;;13.16;49.12
24962;BME280;12992;50.884;13.668;2023-03-16T12:24:46;97488.78;;;13.12;51.76
24962;BME280;12992;50.884;13.668;2023-03-16T12:27:19;97404.97;;;12.70;44.74
24962;BME280;12992;50.884;13.668;2023-03-16T12:35:42;97415.78;;;12.40;43.99
24962;BME280;12992;50.884;13.668;2023-03-16T12:41:05;97490.56;;;12.76;45.42
24962;BME280;12992;50.884;13.668;2023-03-16T12:43:40;97436.75;;;12.87;42.28
24962;BME280;12992;50.884;13.668;2023-03-16T12:46:25;97427.44;;;12.72;43.98
24962;BME280;12992;50.884;13.668;2023-03-16T12:48:56;97436.75;;;12.82;43.51
24962;BME280;12992;50.884;13.668;2023-03-16T12:51:40;97476.06;;;13.38;42.73
24962;BME280;12992;50.884;13.668;2023-03-16T12:54:26;97427.59;;;13.23;41.32
24962;BME280;12992;50.884;13.668;2023-03-16T12:56:59;97405.06;;;12.91;44.57
24962;BME280;12992;50.884;13.668;2023-03-16T12:59:35;97377.38;;;12.67;45.26
24962;BME280;12992;50.884;13.668;2023-03-16T13:02:02;97437.28;;;12.84;46.37
24962;BME280;12992;50.884;13.668;2023-03-16T13:04:38;97424.41;;;12.79;47.20
24962;BME280;12992;50.884;13.668;2023-03-16T13:07:34;97411.91;;;12.36;52.48
24962;BME280;12992;50.884;13.668;2023-03-16T13:10:03;97359.50;;;11.91;47.04
24962;BME280;12992;50.884;13.668;2023-03-16T13:12:34;97345.75;;;11.39;46.97
24962;BME280;12992;50.884;13.668;2023-03-16T13:17:42;97340.78;;;11.31;45.52
24962;BME280;12992;50.884;13.668;2023-03-16T13:20:30;97360.03;;;11.19;46.51
24962;BME280;12992;50.884;13.668;2023-03-16T13:26:10;97338.31;;;10.97;46.66
24962;BME280;12992;50.884;13.668;2023-03-16T13:28:37;97368.19;;;11.19;47.17
24962;BME280;12992;50.884;13.668;2023-03-16T13:31:04;97358.03;;;11.10;48.26
24962;BME280;12992;50.884;13.668;2023-03-16T13:33:32;97322.00;;;10.75;49.13
24962;BME280;12992;50.884;13.668;2023-03-16T13:36:02;97315.59;;;10.87;45.99
24962;BME280;12992;50.884;13.668;2023-03-16T13:38:28;97269.50;;;10.31;43.94
24962;BME280;12992;50.884;13.668;2023-03-16T13:41:03;97290.28;;;10.37;44.65
24962;BME280;12992;50.884;13.668;2023-03-16T13:43:30;97315.91;;;10.41;44.05
24962;BME280;12992;50.884;13.668;2023-03-16T13:45:57;97307.13;;;10.34;43.53